createdAt,value
2023-02-11T00:04:10.214Z,33.11
2023-02-11T00:09:32.479Z,32.95
2023-02-11T00:14:54.186Z,33.21
2023-02-11T00:20:16.126Z,32.86
2023-02-11T00:25:45.670Z,32.84
2023-02-11T00:31:07.634Z,32.99
2023-02-11T00:36:30.258Z,32.92
2023-02-11T00:41:52.206Z,33.36
2023-02-11T00:47:14.062Z,33.37
2023-02-11T00:52:35.899Z,33.44
2023-02-11T00:57:59.010Z,33.13
2023-02-11T01:03:20.919Z,33.24
2023-02-11T01:08:42.632Z,33.27
2023-02-11T01:14:04.359Z,33.41
2023-02-11T01:19:26.103Z,33.42
2023-02-11T01:24:47.885Z,33.43
2023-02-11T01:30:12.227Z,33.38
2023-02-11T01:35:34.027Z,33.44
2023-02-11T01:41:02.014Z,33.14
2023-02-11T01:46:29.763Z,33.55
2023-02-11T01:51:55.221Z,33.51
2023-02-11T01:57:23.503Z,33.12
2023-02-11T02:02:51.092Z,33.36
2023-02-11T02:08:19.034Z,33.46
2023-02-11T02:13:40.819Z,33.61
2023-02-11T02:19:17.698Z,33.45
2023-02-11T02:25:16.936Z,33.25
2023-02-11T02:30:46.946Z,33.64
2023-02-11T02:36:23.768Z,33.23
2023-02-11T02:41:47.584Z,33.40
2023-02-11T02:47:09.272Z,33.25
2023-02-11T02:52:44.254Z,33.63
2023-02-11T02:58:22.699Z,33.61
2023-02-11T03:03:47.214Z,33.69
2023-02-11T03:09:27.777Z,33.25
2023-02-11T03:14:52.392Z,33.55
2023-02-11T03:20:17.623Z,33.70
2023-02-11T03:25:46.014Z,33.34
2023-02-11T03:31:44.652Z,33.52
2023-02-11T03:37:13.248Z,33.59
2023-02-11T03:42:41.007Z,33.30
2023-02-11T03:48:08.082Z,33.34
2023-02-11T03:53:29.782Z,33.32
2023-02-11T03:58:51.526Z,33.35
2023-02-11T04:04:13.293Z,33.77
2023-02-11T04:09:36.438Z,33.55
2023-02-11T04:14:58.357Z,33.66
2023-02-11T04:20:20.366Z,33.72
2023-02-11T04:25:43.033Z,33.82
2023-02-11T04:31:04.952Z,33.41
2023-02-11T04:36:27.028Z,33.70
2023-02-11T04:41:49.167Z,33.75
2023-02-11T04:47:12.861Z,33.64
2023-02-11T04:52:34.911Z,33.75
2023-02-11T04:57:56.709Z,33.89
2023-02-11T05:03:18.698Z,33.49
2023-02-11T05:08:40.691Z,33.55
2023-02-11T05:14:02.489Z,33.97
2023-02-11T05:19:24.177Z,33.47
2023-02-11T05:24:45.898Z,33.47
2023-02-11T05:30:09.035Z,33.86
2023-02-11T05:35:30.780Z,33.77
2023-02-11T05:40:52.478Z,33.99
2023-02-11T05:46:14.309Z,33.54
2023-02-11T05:51:36.160Z,33.96
2023-02-11T05:56:57.909Z,33.55
2023-02-11T06:02:19.779Z,33.52
2023-02-11T06:07:41.804Z,33.99
2023-02-11T06:13:04.281Z,33.89
2023-02-11T06:18:26.220Z,33.56
2023-02-11T06:23:48.144Z,33.60
2023-02-11T06:29:10.312Z,33.62
2023-02-11T06:34:32.034Z,33.58
2023-02-11T06:39:53.737Z,33.57
2023-02-11T06:45:15.630Z,33.85
2023-02-11T06:50:37.350Z,33.20
2023-02-11T06:56:06.378Z,32.59
2023-02-11T07:01:28.986Z,32.22
2023-02-11T07:06:50.737Z,31.34
2023-02-11T07:12:12.481Z,31.13
2023-02-11T07:17:35.905Z,31.49
2023-02-11T07:22:57.952Z,31.52
2023-02-11T07:28:19.767Z,31.22
2023-02-11T07:33:42.330Z,31.76
2023-02-11T07:39:04.305Z,31.51
2023-02-11T07:44:26.170Z,31.88
2023-02-11T07:49:47.879Z,31.79
2023-02-11T07:55:10.312Z,31.90
2023-02-11T08:00:32.068Z,32.23
2023-02-11T08:05:53.755Z,32.46
2023-02-11T08:11:22.031Z,32.72
2023-02-11T08:16:43.785Z,32.63
2023-02-11T08:22:05.685Z,32.40
2023-02-11T08:27:27.525Z,32.46
2023-02-11T08:32:49.248Z,32.52
2023-02-11T08:38:10.945Z,32.90
2023-02-11T08:43:33.545Z,31.99
2023-02-11T08:48:55.324Z,32.00
2023-02-11T08:54:17.558Z,31.28
2023-02-11T08:59:40.220Z,30.96
2023-02-11T09:05:01.928Z,30.65
2023-02-11T09:10:23.664Z,31.13
2023-02-11T09:15:46.982Z,30.67
2023-02-11T09:21:10.167Z,30.32
2023-02-11T09:26:33.972Z,30.68
2023-02-11T09:31:55.862Z,30.47
2023-02-11T09:37:17.632Z,30.77
2023-02-11T09:43:02.333Z,30.84
2023-02-11T09:48:25.976Z,31.24
2023-02-11T09:53:54.599Z,31.16
2023-02-11T09:59:17.791Z,31.59
2023-02-11T10:05:07.191Z,31.65
2023-02-11T10:10:50.446Z,32.14
2023-02-11T10:16:18.460Z,32.38
2023-02-11T10:22:04.720Z,32.90
2023-02-11T10:27:35.605Z,32.89
2023-02-11T10:33:06.747Z,32.93
2023-02-11T10:38:28.492Z,33.79
2023-02-11T10:43:51.052Z,34.01
2023-02-11T10:49:38.966Z,34.39
2023-02-11T10:55:17.361Z,33.58
2023-02-11T11:00:41.123Z,33.33
2023-02-11T11:06:05.765Z,32.88
2023-02-11T11:11:27.607Z,32.70
2023-02-11T11:16:56.430Z,32.48
2023-02-11T11:22:24.364Z,32.11
2023-02-11T11:27:50.763Z,32.40
2023-02-11T11:33:25.076Z,32.42
2023-02-11T11:39:00.733Z,32.46
2023-02-11T11:44:29.922Z,32.59
2023-02-11T11:50:39.720Z,33.10
2023-02-11T11:56:23.181Z,33.07
2023-02-11T12:01:59.253Z,33.54
2023-02-11T12:07:21.128Z,33.16
2023-02-11T12:13:17.214Z,33.55
2023-02-11T12:18:49.969Z,33.35
2023-02-11T12:24:39.125Z,33.65
2023-02-11T12:30:28.704Z,33.64
2023-02-11T12:35:59.438Z,33.95
2023-02-11T12:41:51.707Z,33.99
2023-02-11T12:47:39.275Z,34.57
2023-02-11T12:53:30.185Z,34.72
2023-02-11T12:58:56.241Z,34.48
2023-02-11T13:04:38.677Z,34.11
2023-02-11T13:10:09.430Z,34.21
2023-02-11T13:15:31.557Z,33.42
2023-02-11T13:21:09.513Z,33.36
2023-02-11T13:26:54.265Z,32.69
2023-02-11T13:32:16.430Z,32.86
2023-02-11T13:37:39.912Z,32.69
2023-02-11T13:43:04.673Z,32.28
2023-02-11T13:48:38.739Z,32.66
2023-02-11T13:54:01.212Z,32.64
2023-02-11T13:59:25.942Z,32.86
2023-02-11T14:05:24.823Z,33.47
2023-02-11T14:10:52.557Z,33.61
2023-02-11T14:16:22.601Z,33.37
2023-02-11T14:21:46.796Z,33.70
2023-02-11T14:27:21.592Z,33.72
2023-02-11T14:32:55.201Z,33.99
2023-02-11T14:38:39.797Z,34.04
2023-02-11T14:44:06.555Z,34.18
2023-02-11T14:49:35.913Z,34.47
2023-02-11T14:55:23.818Z,34.57
2023-02-11T15:00:56.295Z,34.48
2023-02-11T15:06:28.179Z,34.75
2023-02-11T15:11:52.479Z,35.09
2023-02-11T15:17:19.215Z,34.75
2023-02-11T15:22:40.981Z,34.63
2023-02-11T15:28:21.613Z,34.29
2023-02-11T15:33:43.918Z,34.29
2023-02-11T15:39:31.709Z,34.34
2023-02-11T15:45:11.962Z,34.80
2023-02-11T15:50:41.009Z,34.83
2023-02-11T15:56:19.626Z,34.78
2023-02-11T16:01:42.490Z,34.78
2023-02-11T16:07:05.330Z,34.78
2023-02-11T16:12:27.393Z,34.93
2023-02-11T16:17:49.244Z,35.24
2023-02-11T16:23:21.979Z,35.50
2023-02-11T16:28:43.762Z,35.48
2023-02-11T16:34:21.221Z,35.59
2023-02-11T16:39:43.111Z,35.25
2023-02-11T16:45:05.195Z,34.82
2023-02-11T16:50:26.875Z,34.92
2023-02-11T16:55:49.328Z,34.86
2023-02-11T17:01:13.923Z,35.03
2023-02-11T17:06:35.968Z,35.37
2023-02-11T17:11:57.885Z,35.67
2023-02-11T17:17:19.675Z,35.82
2023-02-11T17:22:41.787Z,36.15
2023-02-11T17:28:07.862Z,36.15
2023-02-11T17:33:29.641Z,36.17
2023-02-11T17:38:51.999Z,36.36
2023-02-11T17:44:15.614Z,36.68
2023-02-11T17:49:37.532Z,36.39
2023-02-11T17:54:59.246Z,36.59
2023-02-11T18:00:21.576Z,36.72
2023-02-11T18:05:43.881Z,37.06
2023-02-11T18:11:10.326Z,37.10
2023-02-11T18:16:34.519Z,37.04
2023-02-11T18:21:58.617Z,37.15
2023-02-11T18:27:22.900Z,36.50
2023-02-11T18:32:45.031Z,36.48
2023-02-11T18:38:06.944Z,36.10
2023-02-11T18:43:33.801Z,36.19
2023-02-11T18:48:56.412Z,36.06
2023-02-11T18:54:18.234Z,35.82
2023-02-11T18:59:39.908Z,35.58
2023-02-11T19:05:01.820Z,35.69
2023-02-11T19:10:23.942Z,35.68
2023-02-11T19:15:46.783Z,35.79
2023-02-11T19:21:10.383Z,35.85
2023-02-11T19:26:32.123Z,35.92
2023-02-11T19:31:54.431Z,35.96
2023-02-11T19:37:16.260Z,36.20
2023-02-11T19:42:38.918Z,35.90
2023-02-11T19:48:00.673Z,36.36
2023-02-11T19:53:23.220Z,36.55
2023-02-11T19:58:44.954Z,36.39
2023-02-11T20:04:07.088Z,36.18
2023-02-11T20:09:31.178Z,36.52
2023-02-11T20:14:52.924Z,36.74
2023-02-11T20:20:14.739Z,36.36
2023-02-11T20:25:40.419Z,36.46
2023-02-11T20:31:02.723Z,36.44
2023-02-11T20:36:27.646Z,35.90
2023-02-11T20:41:50.424Z,35.93
2023-02-11T20:47:12.501Z,36.08
2023-02-11T20:52:34.436Z,35.72
2023-02-11T20:57:56.216Z,35.79
2023-02-11T21:03:17.994Z,35.88
2023-02-11T21:08:39.737Z,35.94
2023-02-11T21:14:02.268Z,35.59
2023-02-11T21:19:24.064Z,35.74
2023-02-11T21:24:45.809Z,36.14
2023-02-11T21:30:08.111Z,36.53
2023-02-11T21:35:32.436Z,36.51
2023-02-11T21:40:54.551Z,36.76
2023-02-11T21:46:18.147Z,36.68
2023-02-11T21:51:39.899Z,36.80
2023-02-11T21:57:03.279Z,36.96
2023-02-11T22:02:25.224Z,36.61
2023-02-11T22:07:47.870Z,37.10
2023-02-11T22:13:09.613Z,37.13
2023-02-11T22:18:31.617Z,36.97
2023-02-11T22:23:54.870Z,37.20
2023-02-11T22:29:16.648Z,37.06
2023-02-11T22:34:38.925Z,37.05
2023-02-11T22:40:00.584Z,37.25
2023-02-11T22:45:22.238Z,37.29
2023-02-11T22:50:43.939Z,37.34
2023-02-11T22:56:08.069Z,37.19
2023-02-11T23:01:31.589Z,37.22
2023-02-11T23:06:53.370Z,37.17
2023-02-11T23:12:15.105Z,37.09
2023-02-11T23:17:36.818Z,37.39
2023-02-11T23:22:58.523Z,37.19
2023-02-11T23:28:20.344Z,37.34
2023-02-11T23:33:42.138Z,37.36
2023-02-11T23:39:04.768Z,37.23
2023-02-11T23:44:27.362Z,37.01
2023-02-11T23:49:49.044Z,37.06
2023-02-11T23:55:11.506Z,37.27
